Time;durP1;ratioP1;P1;durP2;ratioP2;P2;SDS_P1;SDS_P2;PMS_P1;PMS_P2;Temp;Humidity;BMP_temperature;BMP_pressure;BME280_temperature;BME280_humidity;BME280_pressure;Samples;Min_cycle;Max_cycle;Signal;HPM_P1;HPM_P2
2024/01/26 00:00:35;;;;;;;1.40;1.00;;;21.50;66.60;;;;;;4941170;28;21138;-81
2024/01/26 00:03:02;;;;;;;2.53;1.03;;;21.40;66.50;;;;;;4936402;28;20225;-81
2024/01/26 00:05:30;;;;;;;1.52;1.05;;;21.50;66.60;;;;;;4932393;28;20464;-82
2024/01/26 00:07:57;;;;;;;2.10;1.10;;;21.40;66.40;;;;;;4930189;28;20197;-81
2024/01/26 00:10:24;;;;;;;1.87;1.10;;;21.40;66.40;;;;;;4921512;28;20986;-82
2024/01/26 00:12:51;;;;;;;1.43;1.10;;;21.40;66.40;;;;;;4927108;28;21016;-82
2024/01/26 00:15:18;;;;;;;2.00;0.85;;;21.40;66.40;;;;;;4930011;28;20468;-80
2024/01/26 00:17:44;;;;;;;1.43;1.10;;;21.40;66.30;;;;;;4926155;28;20225;-81
2024/01/26 00:20:11;;;;;;;1.20;1.10;;;21.40;66.40;;;;;;4924640;28;26691;-80
2024/01/26 00:22:39;;;;;;;1.90;0.95;;;21.40;66.40;;;;;;4929957;28;20274;-82
2024/01/26 00:25:07;;;;;;;1.20;1.00;;;21.40;66.50;;;;;;4927861;28;20209;-81
2024/01/26 00:27:34;;;;;;;1.73;1.00;;;21.30;66.20;;;;;;4921039;28;20215;-81
2024/01/26 00:30:01;;;;;;;1.58;1.20;;;21.30;66.40;;;;;;4925400;28;20298;-81
2024/01/26 00:32:28;;;;;;;1.50;1.13;;;21.30;66.50;;;;;;4919098;28;20700;-82
2024/01/26 00:34:54;;;;;;;1.77;1.10;;;21.30;66.40;;;;;;4917436;28;20212;-82
2024/01/26 00:37:21;;;;;;;1.55;1.13;;;21.30;66.50;;;;;;4926256;28;20567;-82
2024/01/26 00:39:49;;;;;;;1.20;1.00;;;21.30;66.40;;;;;;4914862;28;20327;-81
2024/01/26 00:42:16;;;;;;;1.75;1.20;;;21.30;66.40;;;;;;4911042;28;20228;-81
2024/01/26 00:44:43;;;;;;;1.35;1.00;;;21.30;67.00;;;;;;4918875;28;20329;-81
2024/01/26 00:47:10;;;;;;;1.53;1.07;;;21.30;66.50;;;;;;4919429;28;20799;-82
2024/01/26 00:49:37;;;;;;;1.30;1.10;;;21.30;66.50;;;;;;4913269;28;21448;-82
2024/01/26 00:52:04;;;;;;;1.20;1.02;;;21.30;66.40;;;;;;4914560;28;20208;-81
2024/01/26 00:54:31;;;;;;;1.30;0.90;;;21.30;66.40;;;;;;4917665;28;20203;-83
2024/01/26 00:56:59;;;;;;;1.30;1.10;;;21.20;66.40;;;;;;4910081;28;20464;-81
2024/01/26 00:59:25;;;;;;;1.63;1.02;;;21.30;66.50;;;;;;4909511;28;20195;-82
2024/01/26 01:01:52;;;;;;;1.70;0.83;;;21.20;66.60;;;;;;4910455;28;20217;-81
2024/01/26 01:04:19;;;;;;;1.88;1.17;;;21.20;66.70;;;;;;4913373;28;20484;-82
2024/01/26 01:06:46;;;;;;;1.30;1.13;;;21.20;66.50;;;;;;4911671;28;20201;-81
2024/01/26 01:09:12;;;;;;;1.30;1.13;;;21.20;66.50;;;;;;4915279;28;20336;-82
2024/01/26 01:11:39;;;;;;;1.20;0.90;;;21.20;66.50;;;;;;4912319;28;20205;-82
2024/01/26 01:14:08;;;;;;;1.50;1.00;;;21.20;66.50;;;;;;4915359;28;20999;-82
2024/01/26 01:16:35;;;;;;;1.20;1.00;;;21.20;66.50;;;;;;4917574;28;20201;-82
2024/01/26 01:19:02;;;;;;;2.27;1.10;;;21.20;66.40;;;;;;4919694;28;26531;-82
2024/01/26 01:21:28;;;;;;;1.43;0.93;;;21.10;66.40;;;;;;4917114;28;20472;-82
2024/01/26 01:23:56;;;;;;;1.20;1.00;;;21.10;66.40;;;;;;4920683;28;20852;-82
2024/01/26 01:26:22;;;;;;;1.88;1.30;;;21.10;66.40;;;;;;4911885;28;21127;-82
2024/01/26 01:28:49;;;;;;;1.10;0.90;;;21.10;66.50;;;;;;4916938;28;20208;-82
2024/01/26 01:31:17;;;;;;;1.10;1.00;;;21.10;66.30;;;;;;4918510;28;20500;-82
2024/01/26 01:33:44;;;;;;;2.65;1.23;;;21.10;66.30;;;;;;4915831;28;20500;-82
2024/01/26 01:36:11;;;;;;;1.40;1.00;;;21.10;66.40;;;;;;4909675;28;20263;-82
2024/01/26 01:38:37;;;;;;;1.00;0.80;;;21.10;66.60;;;;;;4914333;28;20201;-82
2024/01/26 01:41:04;;;;;;;1.10;0.90;;;21.10;66.50;;;;;;4907518;28;20208;-82
2024/01/26 01:43:31;;;;;;;2.80;1.20;;;21.10;66.50;;;;;;4911382;28;20354;-82
2024/01/26 01:45:58;;;;;;;1.33;0.90;;;21.10;66.60;;;;;;4907399;28;20300;-82
2024/01/26 01:48:27;;;;;;;1.42;1.05;;;21.10;66.40;;;;;;4911208;28;20460;-80
2024/01/26 01:50:54;;;;;;;3.13;1.23;;;21.00;66.30;;;;;;4913627;28;26496;-82
2024/01/26 01:53:21;;;;;;;1.40;1.00;;;21.00;66.40;;;;;;4908334;28;20205;-82
2024/01/26 01:55:50;;;;;;;1.23;0.90;;;21.00;66.40;;;;;;4909268;28;20465;-81
2024/01/26 01:58:17;;;;;;;1.13;0.82;;;21.00;66.40;;;;;;4902367;28;20587;-81
2024/01/26 02:00:46;;;;;;;1.63;1.35;;;21.00;66.40;;;;;;4908837;28;20209;-81
2024/01/26 02:03:13;;;;;;;1.30;0.90;;;21.00;66.20;;;;;;4914767;28;20225;-81
2024/01/26 02:05:41;;;;;;;1.52;1.10;;;21.00;66.40;;;;;;4911432;28;21758;-83
2024/01/26 02:08:07;;;;;;;1.40;1.20;;;21.00;66.60;;;;;;4912999;28;20232;-81
2024/01/26 02:10:34;;;;;;;1.42;1.00;;;21.00;66.50;;;;;;4908269;28;20340;-81
2024/01/26 02:13:02;;;;;;;2.00;1.08;;;21.00;66.60;;;;;;4909295;28;20209;-81
2024/01/26 02:15:28;;;;;;;1.58;1.10;;;20.90;66.50;;;;;;4904637;28;20675;-82
2024/01/26 02:17:55;;;;;;;1.63;1.00;;;20.90;66.40;;;;;;4910712;28;20478;-82
2024/01/26 02:20:22;;;;;;;1.30;1.10;;;20.90;66.40;;;;;;4912101;28;20324;-81
2024/01/26 02:22:50;;;;;;;1.40;1.00;;;20.90;67.20;;;;;;4907983;28;20347;-82
2024/01/26 02:25:18;;;;;;;1.40;1.07;;;20.90;66.20;;;;;;4913067;28;20331;-83
2024/01/26 02:27:45;;;;;;;1.20;0.98;;;20.90;66.50;;;;;;4910974;28;20451;-82
2024/01/26 02:30:13;;;;;;;1.08;0.90;;;20.90;66.30;;;;;;4906744;28;20223;-82
2024/01/26 02:32:39;;;;;;;1.20;0.90;;;20.90;66.50;;;;;;4910382;28;21211;-82
2024/01/26 02:35:07;;;;;;;1.40;0.97;;;20.90;66.40;;;;;;4913572;28;20225;-82
2024/01/26 02:37:34;;;;;;;1.17;0.80;;;20.90;66.40;;;;;;4912015;28;20482;-81
2024/01/26 02:40:00;;;;;;;1.05;0.88;;;20.90;66.60;;;;;;4904313;28;20208;-81
2024/01/26 02:42:29;;;;;;;1.75;1.10;;;20.90;66.40;;;;;;4911825;28;20260;-81
2024/01/26 02:44:55;;;;;;;2.50;1.02;;;20.90;66.50;;;;;;4914045;28;20339;-81
2024/01/26 02:47:22;;;;;;;2.22;1.63;;;20.90;66.50;;;;;;4903285;28;20695;-82
2024/01/26 02:49:49;;;;;;;1.65;1.02;;;20.90;66.70;;;;;;4908427;28;20899;-81
2024/01/26 02:52:15;;;;;;;1.80;1.13;;;20.90;66.60;;;;;;4912165;28;20212;-82
2024/01/26 02:54:42;;;;;;;1.40;0.90;;;20.90;66.50;;;;;;4905663;28;20456;-83
2024/01/26 02:57:09;;;;;;;1.60;1.20;;;20.80;66.40;;;;;;4910937;28;20210;-82
2024/01/26 02:59:37;;;;;;;1.00;0.80;;;20.80;66.50;;;;;;4913040;28;20488;-82
2024/01/26 03:02:04;;;;;;;1.20;0.90;;;20.80;66.30;;;;;;4910842;28;20347;-83
2024/01/26 03:04:31;;;;;;;1.33;0.90;;;20.80;66.20;;;;;;4905815;28;21131;-82
2024/01/26 03:06:57;;;;;;;1.40;1.15;;;20.80;66.20;;;;;;4911408;28;20775;-81
2024/01/26 03:09:24;;;;;;;1.40;0.80;;;20.80;66.50;;;;;;4907812;28;20212;-82
2024/01/26 03:11:51;;;;;;;2.07;1.07;;;20.80;66.40;;;;;;4904873;28;20209;-81
2024/01/26 03:14:18;;;;;;;1.20;1.00;;;20.80;66.40;;;;;;4912273;28;20468;-81
2024/01/26 03:16:46;;;;;;;1.98;1.13;;;20.80;66.50;;;;;;4908257;28;20205;-81
2024/01/26 03:19:13;;;;;;;1.70;1.00;;;20.80;66.40;;;;;;4912578;28;20212;-82
2024/01/26 03:21:43;;;;;;;1.00;0.80;;;20.80;66.20;;;;;;4914792;28;20232;-82
2024/01/26 03:24:10;;;;;;;1.73;1.10;;;20.70;66.50;;;;;;4907068;28;20359;-83
2024/01/26 03:26:38;;;;;;;1.40;0.93;;;20.70;66.40;;;;;;4911486;28;20904;-81
2024/01/26 03:29:05;;;;;;;1.20;0.95;;;20.70;66.40;;;;;;4913337;28;20476;-81
2024/01/26 03:31:32;;;;;;;1.20;1.00;;;20.70;66.50;;;;;;4905984;28;20309;-81
2024/01/26 03:34:01;;;;;;;1.20;0.90;;;20.70;66.50;;;;;;4908839;28;20201;-81
2024/01/26 03:36:27;;;;;;;1.00;0.90;;;20.70;66.20;;;;;;4909705;28;21259;-82
2024/01/26 03:38:54;;;;;;;1.88;1.55;;;20.70;66.40;;;;;;4907497;28;20208;-82
2024/01/26 03:41:21;;;;;;;1.30;0.80;;;20.70;66.50;;;;;;4901051;28;20251;-82
2024/01/26 03:43:51;;;;;;;1.48;1.13;;;20.70;66.60;;;;;;4908158;28;20270;-81
2024/01/26 03:46:18;;;;;;;1.52;0.93;;;20.70;66.40;;;;;;4904560;28;20205;-81
2024/01/26 03:48:45;;;;;;;1.20;0.90;;;20.70;66.50;;;;;;4909637;28;20212;-83
2024/01/26 03:51:14;;;;;;;1.25;1.05;;;20.70;66.40;;;;;;4913559;28;20464;-83
2024/01/26 03:53:41;;;;;;;1.00;0.80;;;20.70;66.40;;;;;;4910956;28;20326;-83
2024/01/26 03:56:07;;;;;;;1.27;1.00;;;20.60;66.30;;;;;;4908364;28;20208;-82
2024/01/26 03:58:34;;;;;;;1.10;0.93;;;20.60;66.30;;;;;;4914744;28;20220;-82
2024/01/26 04:01:01;;;;;;;1.00;0.90;;;20.60;66.40;;;;;;4909737;28;20209;-82
2024/01/26 04:03:27;;;;;;;1.15;0.98;;;20.60;66.30;;;;;;4906718;28;20473;-82
2024/01/26 04:05:54;;;;;;;1.50;1.10;;;20.60;66.30;;;;;;4906516;28;21028;-82
2024/01/26 04:08:22;;;;;;;1.40;1.10;;;20.60;66.40;;;;;;4909898;28;20236;-83
2024/01/26 04:10:49;;;;;;;1.80;1.00;;;20.60;66.40;;;;;;4909209;28;20216;-81
2024/01/26 04:13:15;;;;;;;1.38;0.90;;;20.60;66.30;;;;;;4909832;28;20240;-81
2024/01/26 04:15:44;;;;;;;2.47;1.30;;;20.60;66.40;;;;;;4903371;28;20208;-81
2024/01/26 04:18:11;;;;;;;1.23;1.05;;;20.60;66.50;;;;;;4913588;28;20247;-79
2024/01/26 04:20:38;;;;;;;1.10;0.90;;;20.60;66.40;;;;;;4912016;28;20322;-81
2024/01/26 04:23:05;;;;;;;1.30;1.00;;;20.60;66.30;;;;;;4913468;28;20224;-80
2024/01/26 04:25:33;;;;;;;1.23;0.88;;;20.60;66.40;;;;;;4912792;28;21572;-81
2024/01/26 04:27:59;;;;;;;1.13;0.88;;;20.60;66.30;;;;;;4910555;28;20666;-81
2024/01/26 04:30:26;;;;;;;1.25;0.90;;;20.60;66.30;;;;;;4909701;28;26477;-82
2024/01/26 04:32:53;;;;;;;1.25;0.95;;;20.60;66.30;;;;;;4913634;28;20252;-80
2024/01/26 04:35:20;;;;;;;1.23;0.85;;;20.60;66.40;;;;;;4916190;28;21248;-82
2024/01/26 04:37:47;;;;;;;0.90;0.80;;;20.60;66.20;;;;;;4913749;28;21075;-81
2024/01/26 04:40:14;;;;;;;1.42;1.20;;;20.60;66.20;;;;;;4907919;28;20197;-81
2024/01/26 04:42:42;;;;;;;1.30;0.90;;;20.60;66.30;;;;;;4912831;28;26464;-81
2024/01/26 04:45:09;;;;;;;1.08;0.80;;;20.50;66.20;;;;;;4910005;28;20240;-82
2024/01/26 04:47:36;;;;;;;1.00;0.77;;;20.50;66.40;;;;;;4906964;28;20233;-81
2024/01/26 04:50:03;;;;;;;1.20;0.93;;;20.50;66.70;;;;;;4915401;28;20289;-81
2024/01/26 04:52:30;;;;;;;1.70;0.93;;;20.50;66.40;;;;;;4906025;28;20294;-83
2024/01/26 04:54:56;;;;;;;1.27;1.00;;;20.50;66.50;;;;;;4908269;28;20464;-82
2024/01/26 04:57:23;;;;;;;1.73;1.13;;;20.50;66.50;;;;;;4908611;28;20248;-82
2024/01/26 04:59:52;;;;;;;1.70;1.20;;;20.50;66.40;;;;;;4915675;28;20225;-82
2024/01/26 05:02:18;;;;;;;1.40;1.30;;;20.50;66.30;;;;;;4910543;28;20414;-81
2024/01/26 05:04:45;;;;;;;1.47;1.37;;;20.50;66.40;;;;;;4910697;28;20940;-80
2024/01/26 05:07:12;;;;;;;1.35;0.98;;;20.50;66.40;;;;;;4912149;28;20476;-82
2024/01/26 05:09:39;;;;;;;2.53;0.90;;;20.50;66.20;;;;;;4914391;28;20786;-81
2024/01/26 05:12:07;;;;;;;1.42;0.90;;;20.50;66.30;;;;;;4911522;28;26509;-83
2024/01/26 05:14:35;;;;;;;1.30;1.20;;;20.50;66.40;;;;;;4908806;28;20212;-81
2024/01/26 05:17:03;;;;;;;1.35;1.10;;;20.50;66.30;;;;;;4914469;28;20240;-81
2024/01/26 05:19:30;;;;;;;1.20;1.10;;;20.50;66.30;;;;;;4912991;28;21227;-82
2024/01/26 05:21:57;;;;;;;1.77;1.00;;;20.40;66.20;;;;;;4910766;28;20340;-82
2024/01/26 05:24:24;;;;;;;1.33;0.95;;;20.40;66.20;;;;;;4912107;28;20225;-82
2024/01/26 05:26:51;;;;;;;1.73;1.10;;;20.40;66.30;;;;;;4909714;28;21087;-81
2024/01/26 05:29:17;;;;;;;1.20;0.88;;;20.40;66.30;;;;;;4911230;28;20219;-84
2024/01/26 05:31:44;;;;;;;1.00;0.82;;;20.40;66.50;;;;;;4898989;28;20311;-81
2024/01/26 05:34:12;;;;;;;1.40;0.88;;;20.40;66.40;;;;;;4911230;28;20212;-80
2024/01/26 05:36:42;;;;;;;1.20;1.00;;;20.40;66.30;;;;;;4908667;28;20240;-81
2024/01/26 05:39:10;;;;;;;1.40;1.10;;;20.40;66.40;;;;;;4912798;28;20331;-82
2024/01/26 05:41:37;;;;;;;1.30;1.17;;;20.40;66.30;;;;;;4901674;28;20495;-81
2024/01/26 05:44:04;;;;;;;1.20;1.00;;;20.40;66.30;;;;;;4914682;28;26696;-81
2024/01/26 05:46:31;;;;;;;1.50;1.13;;;20.40;66.40;;;;;;4904660;28;20323;-81
2024/01/26 05:48:57;;;;;;;1.27;1.17;;;20.40;66.60;;;;;;4905409;28;20323;-82
2024/01/26 05:51:26;;;;;;;1.33;1.00;;;20.40;66.20;;;;;;4905334;28;21203;-82
2024/01/26 05:53:54;;;;;;;1.38;1.05;;;20.40;66.40;;;;;;4902122;28;20328;-81
2024/01/26 05:56:21;;;;;;;1.20;0.95;;;20.40;66.30;;;;;;4906643;28;20211;-81
2024/01/26 05:58:49;;;;;;;1.10;0.80;;;20.40;67.40;;;;;;4900091;28;20312;-80
2024/01/26 06:01:16;;;;;;;1.70;1.23;;;20.40;66.30;;;;;;4903209;28;20483;-81
2024/01/26 06:03:42;;;;;;;1.00;0.80;;;20.40;66.30;;;;;;4903857;28;27017;-81
2024/01/26 06:06:09;;;;;;;1.10;0.82;;;20.40;66.40;;;;;;4910006;28;20464;-80
2024/01/26 06:08:40;;;;;;;1.20;1.03;;;20.40;66.40;;;;;;4905727;28;20201;-81
2024/01/26 06:11:06;;;;;;;1.20;0.93;;;20.30;66.40;;;;;;4900660;28;26709;-81
2024/01/26 06:13:33;;;;;;;1.42;0.80;;;20.30;66.50;;;;;;4909023;28;20467;-81
2024/01/26 06:16:00;;;;;;;1.15;0.90;;;20.30;66.50;;;;;;4907170;28;20205;-82
2024/01/26 06:18:27;;;;;;;1.20;1.00;;;20.30;66.40;;;;;;4908092;28;20343;-82
2024/01/26 06:20:54;;;;;;;1.10;0.80;;;20.30;66.40;;;;;;4901843;28;21301;-82
2024/01/26 06:23:20;;;;;;;1.05;0.93;;;20.30;66.40;;;;;;4909155;28;20221;-82
2024/01/26 06:25:49;;;;;;;1.05;0.85;;;20.30;66.30;;;;;;4906160;28;20221;-81
2024/01/26 06:28:16;;;;;;;1.17;1.08;;;20.30;66.50;;;;;;4910745;28;20209;-83
2024/01/26 06:30:42;;;;;;;1.02;0.80;;;20.30;66.40;;;;;;4905514;28;20208;-82
2024/01/26 06:33:09;;;;;;;1.10;0.82;;;20.30;66.30;;;;;;4904957;28;20246;-81
2024/01/26 06:35:36;;;;;;;1.55;1.10;;;20.30;66.30;;;;;;4909781;28;20207;-82
2024/01/26 06:38:03;;;;;;;1.10;0.95;;;20.30;66.30;;;;;;4908402;28;20420;-82
2024/01/26 06:40:30;;;;;;;1.50;0.90;;;20.30;66.40;;;;;;4905412;28;20819;-81
2024/01/26 06:43:01;;;;;;;1.20;0.90;;;20.30;66.40;;;;;;4910948;28;20216;-81
2024/01/26 06:45:28;;;;;;;1.25;0.98;;;20.30;66.40;;;;;;4905871;28;20479;-81
2024/01/26 06:47:55;;;;;;;1.20;1.00;;;20.30;66.40;;;;;;4902601;28;20201;-81
2024/01/26 06:50:22;;;;;;;1.00;0.90;;;20.30;66.40;;;;;;4910627;28;20202;-80
2024/01/26 06:52:48;;;;;;;1.55;1.20;;;20.30;66.30;;;;;;4899122;28;21236;-81
2024/01/26 06:55:15;;;;;;;1.13;1.02;;;20.30;66.40;;;;;;4910689;28;20197;-81
2024/01/26 06:57:43;;;;;;;1.23;1.13;;;20.30;66.60;;;;;;4907250;28;20206;-81
2024/01/26 07:00:12;;;;;;;1.10;0.80;;;20.20;66.50;;;;;;4905342;28;20201;-80
2024/01/26 07:02:39;;;;;;;1.50;1.03;;;20.20;66.50;;;;;;4903084;28;20209;-81
2024/01/26 07:05:08;;;;;;;0.90;0.70;;;20.20;66.40;;;;;;4905883;28;22307;-81
2024/01/26 07:07:35;;;;;;;1.10;0.80;;;20.20;66.50;;;;;;4904624;28;20629;-81
2024/01/26 07:10:01;;;;;;;1.00;0.80;;;20.20;66.30;;;;;;4909045;28;20212;-82
2024/01/26 07:12:28;;;;;;;1.23;1.00;;;20.20;66.40;;;;;;4908249;28;20216;-82
2024/01/26 07:14:55;;;;;;;1.00;0.85;;;20.20;66.40;;;;;;4904614;28;20197;-81
2024/01/26 07:17:23;;;;;;;1.20;1.10;;;20.20;66.40;;;;;;4905192;28;20213;-82
2024/01/26 07:19:49;;;;;;;1.17;1.00;;;20.20;66.30;;;;;;4905357;28;20237;-83
2024/01/26 07:22:16;;;;;;;1.35;0.90;;;20.20;66.40;;;;;;4907222;28;20339;-81
2024/01/26 07:24:43;;;;;;;1.10;0.80;;;20.20;66.20;;;;;;4917608;28;20225;-82
2024/01/26 07:27:10;;;;;;;1.83;0.90;;;20.20;66.80;;;;;;4901630;28;20890;-82
2024/01/26 07:29:37;;;;;;;1.10;0.90;;;20.20;66.90;;;;;;4914395;28;20209;-86
2024/01/26 07:32:04;;;;;;;13.32;1.42;;;20.20;66.80;;;;;;4921319;28;20211;-83
2024/01/26 07:34:32;;;;;;;3.00;0.95;;;20.20;67.90;;;;;;4924112;28;20256;-82
2024/01/26 07:36:59;;;;;;;5.65;1.10;;;20.20;67.90;;;;;;4924506;28;20684;-84
2024/01/26 07:39:26;;;;;;;10.73;1.02;;;20.20;67.80;;;;;;4920699;28;21000;-84
2024/01/26 07:41:53;;;;;;;9.55;1.30;;;20.30;68.20;;;;;;4909878;28;20205;-83
2024/01/26 07:44:20;;;;;;;4.60;1.05;;;20.30;68.10;;;;;;4914975;28;20255;-84
2024/01/26 07:46:46;;;;;;;1.10;0.90;;;20.30;67.90;;;;;;4907331;28;20240;-85
2024/01/26 07:49:13;;;;;;;1.23;0.93;;;20.30;68.30;;;;;;4909551;28;20212;-86
2024/01/26 07:51:41;;;;;;;2.85;1.15;;;20.30;68.50;;;;;;4902607;28;21484;-86
2024/01/26 07:54:08;;;;;;;1.48;1.00;;;20.30;68.50;;;;;;4915466;28;20235;-86
2024/01/26 07:56:35;;;;;;;1.67;0.90;;;20.40;68.90;;;;;;4924923;28;20209;-90
2024/01/26 07:59:02;;;;;;;3.03;0.90;;;20.40;69.10;;;;;;4916110;28;20661;-86
2024/01/26 08:01:29;;;;;;;1.88;1.08;;;20.40;68.90;;;;;;4905258;28;20201;-88
2024/01/26 08:03:56;;;;;;;2.85;1.30;;;20.50;69.40;;;;;;4910045;28;20201;-90
2024/01/26 08:06:22;;;;;;;5.28;1.00;;;20.50;69.10;;;;;;4911767;28;21231;-88
2024/01/26 08:08:51;;;;;;;1.88;1.10;;;20.50;69.50;;;;;;4927257;28;20210;-92
2024/01/26 08:11:19;;;;;;;3.92;0.90;;;20.60;69.70;;;;;;4925102;28;20209;-89
2024/01/26 08:13:46;;;;;;;2.78;1.10;;;20.80;69.60;;;;;;4927761;28;20212;-86
2024/01/26 08:16:16;;;;;;;1.10;0.85;;;20.70;69.70;;;;;;4916831;28;20244;-90
2024/01/26 08:18:43;;;;;;;1.00;0.87;;;20.70;69.20;;;;;;4908650;28;20825;-86
2024/01/26 08:21:10;;;;;;;8.85;0.98;;;20.80;69.80;;;;;;4885763;28;20468;-84
2024/01/26 08:23:37;;;;;;;6.60;0.90;;;20.80;69.80;;;;;;4915134;28;26562;-88
2024/01/26 08:26:06;;;;;;;1.20;0.93;;;20.90;70.30;;;;;;4905003;28;20494;-87
2024/01/26 08:28:33;;;;;;;1.20;0.85;;;20.90;70.10;;;;;;4909226;28;20208;-86
2024/01/26 08:30:59;;;;;;;3.33;0.80;;;20.90;70.00;;;;;;4905789;28;20225;-85
2024/01/26 08:33:26;;;;;;;1.33;0.80;;;20.90;70.10;;;;;;4919436;28;20978;-86
2024/01/26 08:35:53;;;;;;;1.00;0.80;;;21.00;70.20;;;;;;4913817;28;20201;-87
2024/01/26 08:38:20;;;;;;;1.07;0.87;;;21.10;70.10;;;;;;4903684;28;20210;-87
2024/01/26 08:40:46;;;;;;;1.00;0.80;;;21.10;69.80;;;;;;4906681;28;20715;-87
2024/01/26 08:43:15;;;;;;;1.90;0.95;;;21.10;70.20;;;;;;4902921;28;20471;-87
2024/01/26 08:45:41;;;;;;;1.55;0.90;;;21.20;70.20;;;;;;4902315;28;20317;-87
2024/01/26 08:48:08;;;;;;;1.40;0.90;;;21.20;70.00;;;;;;4907493;28;20240;-90
2024/01/26 08:50:36;;;;;;;1.00;0.80;;;21.20;69.60;;;;;;4923856;28;20518;-86
2024/01/26 08:53:03;;;;;;;2.03;0.87;;;21.30;69.60;;;;;;4921983;28;21299;-87
2024/01/26 08:55:30;;;;;;;1.95;1.85;;;21.30;69.60;;;;;;4918675;28;21572;-88
2024/01/26 08:57:56;;;;;;;1.10;0.90;;;21.30;69.60;;;;;;4916896;28;20236;-86
2024/01/26 09:00:25;;;;;;;0.97;0.80;;;21.40;69.70;;;;;;4920824;28;20470;-86
2024/01/26 09:02:52;;;;;;;1.33;0.97;;;21.40;69.60;;;;;;4916314;28;26411;-81
2024/01/26 09:05:19;;;;;;;1.30;0.97;;;21.40;69.60;;;;;;4933768;28;20476;-81
2024/01/26 09:07:46;;;;;;;1.10;0.90;;;21.40;70.30;;;;;;4941561;28;26655;-81
2024/01/26 09:10:13;;;;;;;1.17;0.73;;;21.50;69.40;;;;;;4933322;28;20687;-81
2024/01/26 09:12:39;;;;;;;1.07;0.80;;;21.50;69.40;;;;;;4934905;28;20466;-82
2024/01/26 09:15:07;;;;;;;1.10;0.90;;;21.50;69.20;;;;;;4931304;28;20846;-82
2024/01/26 09:17:36;;;;;;;1.80;0.80;;;21.50;69.00;;;;;;4943314;28;21460;-81
2024/01/26 09:20:03;;;;;;;1.00;0.70;;;21.50;68.90;;;;;;4941695;28;21244;-81
2024/01/26 09:22:30;;;;;;;1.53;0.90;;;21.50;68.80;;;;;;4931955;28;20849;-82
2024/01/26 09:24:57;;;;;;;1.57;1.00;;;21.50;68.70;;;;;;4939603;28;20491;-81
2024/01/26 09:27:24;;;;;;;1.20;0.70;;;21.50;68.60;;;;;;4939941;28;20538;-82
2024/01/26 09:29:50;;;;;;;1.27;0.90;;;21.50;68.40;;;;;;4946855;28;20468;-82
2024/01/26 09:32:17;;;;;;;1.47;0.70;;;21.50;68.40;;;;;;4941822;28;20890;-82
2024/01/26 09:34:45;;;;;;;1.23;0.83;;;21.50;68.30;;;;;;4944965;28;20452;-82
2024/01/26 09:37:12;;;;;;;6.10;1.03;;;21.50;68.30;;;;;;4947277;28;20456;-82
2024/01/26 09:39:39;;;;;;;1.60;1.00;;;21.50;68.20;;;;;;4952038;28;20460;-81
2024/01/26 09:42:06;;;;;;;1.00;0.80;;;21.50;68.20;;;;;;4944666;28;20456;-82
2024/01/26 09:44:33;;;;;;;1.40;0.80;;;21.50;68.20;;;;;;4946686;28;20349;-82
2024/01/26 09:47:02;;;;;;;0.90;0.70;;;21.50;68.90;;;;;;4948147;28;20468;-82
2024/01/26 09:49:29;;;;;;;1.73;0.80;;;21.50;68.10;;;;;;4950484;28;20478;-81
2024/01/26 09:51:58;;;;;;;1.63;0.80;;;21.50;68.10;;;;;;4949111;28;21029;-81
2024/01/26 09:54:27;;;;;;;1.10;0.90;;;21.50;68.10;;;;;;4944633;28;20468;-82
2024/01/26 09:56:56;;;;;;;1.10;0.90;;;21.60;68.20;;;;;;4949659;28;20239;-81
2024/01/26 09:59:22;;;;;;;1.20;0.90;;;21.60;68.10;;;;;;4945814;28;20460;-81
2024/01/26 10:01:50;;;;;;;1.10;0.80;;;21.60;68.10;;;;;;4945383;28;20475;-82
2024/01/26 10:04:17;;;;;;;1.13;0.97;;;21.60;68.80;;;;;;4944822;28;20201;-81
2024/01/26 10:06:45;;;;;;;1.00;0.73;;;21.60;67.90;;;;;;4947804;28;20494;-79
2024/01/26 10:09:14;;;;;;;1.10;0.87;;;21.60;68.10;;;;;;4946645;28;20456;-81
2024/01/26 10:11:41;;;;;;;1.40;1.10;;;21.60;67.90;;;;;;4946550;28;20456;-81
2024/01/26 10:14:08;;;;;;;1.30;0.90;;;21.60;67.90;;;;;;4942701;28;20805;-86
2024/01/26 10:16:35;;;;;;;1.20;0.80;;;21.60;67.90;;;;;;4941609;28;21446;-86
2024/01/26 10:19:04;;;;;;;1.50;0.93;;;21.60;68.10;;;;;;4939326;28;20479;-84
2024/01/26 10:21:30;;;;;;;1.97;1.10;;;21.50;68.10;;;;;;4939970;28;20456;-85
2024/01/26 10:23:58;;;;;;;1.60;1.10;;;21.50;68.50;;;;;;4936145;28;20476;-84
2024/01/26 10:26:28;;;;;;;1.55;1.40;;;21.40;68.60;;;;;;4935519;28;20496;-85
2024/01/26 10:28:57;;;;;;;1.50;1.40;;;21.40;68.70;;;;;;4938111;28;20209;-86
2024/01/26 10:31:25;;;;;;;1.47;1.00;;;21.30;68.90;;;;;;4941706;28;20605;-87
2024/01/26 10:33:55;;;;;;;2.72;1.10;;;21.30;69.00;;;;;;4938480;28;20589;-85
2024/01/26 10:36:22;;;;;;;2.08;1.13;;;21.30;69.10;;;;;;4930820;28;20210;-86
2024/01/26 10:38:51;;;;;;;1.60;0.90;;;21.30;69.10;;;;;;4934989;28;20631;-86
2024/01/26 10:41:20;;;;;;;1.10;0.70;;;21.30;69.20;;;;;;4938162;28;20472;-85
2024/01/26 10:43:52;;;;;;;1.10;0.77;;;21.30;69.20;;;;;;4941119;28;26739;-86
2024/01/26 10:46:20;;;;;;;1.00;0.90;;;21.30;69.20;;;;;;4939093;28;20476;-86
2024/01/26 10:48:47;;;;;;;1.20;0.90;;;21.30;69.30;;;;;;4938980;28;20761;-84
2024/01/26 10:51:14;;;;;;;1.10;0.80;;;21.30;69.50;;;;;;4940607;28;21409;-83
2024/01/26 10:53:46;;;;;;;2.25;1.00;;;21.20;69.60;;;;;;4940029;28;20228;-86
2024/01/26 10:56:12;;;;;;;2.47;0.90;;;21.20;69.80;;;;;;4939386;28;26099;-86
2024/01/26 10:58:39;;;;;;;1.30;0.90;;;21.20;69.80;;;;;;4940223;28;21236;-87
2024/01/26 11:01:08;;;;;;;1.25;0.98;;;21.20;69.80;;;;;;4938477;28;20204;-87
2024/01/26 11:03:35;;;;;;;1.20;1.03;;;21.20;69.80;;;;;;4933708;28;20209;-87
2024/01/26 11:06:01;;;;;;;1.30;1.10;;;21.20;69.80;;;;;;4936540;28;21878;-85
2024/01/26 11:08:31;;;;;;;1.95;0.90;;;21.10;69.60;;;;;;4929743;28;20478;-86
2024/01/26 11:10:59;;;;;;;1.20;0.90;;;21.10;69.50;;;;;;4934856;28;20212;-88
2024/01/26 11:13:27;;;;;;;3.25;1.10;;;21.20;69.20;;;;;;4933396;28;21236;-87
2024/01/26 11:16:04;;;;;;;1.00;0.80;;;21.10;69.10;;;;;;4931682;28;26233;-85
2024/01/26 11:18:37;;;;;;;1.20;1.00;;;21.10;69.00;;;;;;4930466;28;20382;-87
2024/01/26 11:21:05;;;;;;;1.30;0.90;;;21.10;69.00;;;;;;4934882;28;21258;-87
2024/01/26 11:23:40;;;;;;;4.70;0.90;;;21.10;69.00;;;;;;4938339;28;20684;-89
2024/01/26 11:26:13;;;;;;;2.07;1.00;;;21.10;68.70;;;;;;4935133;28;21267;-84
2024/01/26 11:28:40;;;;;;;3.10;1.10;;;21.10;68.50;;;;;;4935223;28;20552;-84
2024/01/26 11:31:07;;;;;;;2.42;0.73;;;21.10;68.20;;;;;;4930406;28;20470;-85
2024/01/26 11:33:37;;;;;;;1.48;1.00;;;21.10;68.20;;;;;;4936732;28;20213;-88
2024/01/26 11:36:05;;;;;;;1.83;0.93;;;21.10;68.50;;;;;;4935429;28;20197;-87
2024/01/26 11:38:33;;;;;;;2.80;0.80;;;21.20;68.60;;;;;;4915929;28;20483;-86
2024/01/26 11:41:00;;;;;;;1.67;0.70;;;21.30;68.70;;;;;;4903676;28;20575;-85
2024/01/26 11:43:28;;;;;;;3.80;0.80;;;21.40;68.80;;;;;;4903800;28;20296;-86
2024/01/26 11:45:56;;;;;;;1.00;0.80;;;21.40;68.70;;;;;;4914092;28;20579;-87
2024/01/26 11:48:23;;;;;;;1.17;0.90;;;21.50;68.80;;;;;;4918303;28;20491;-86
2024/01/26 11:50:54;;;;;;;1.20;0.90;;;21.50;68.90;;;;;;4915811;28;20483;-85
2024/01/26 11:53:23;;;;;;;2.03;0.80;;;21.60;68.90;;;;;;4910197;28;20495;-89
2024/01/26 11:55:52;;;;;;;1.63;0.83;;;21.60;68.60;;;;;;4913693;28;20461;-84
2024/01/26 11:58:19;;;;;;;0.97;0.80;;;21.70;68.70;;;;;;4906092;28;21467;-86
2024/01/26 12:00:45;;;;;;;1.33;0.80;;;21.70;68.70;;;;;;4910188;28;20472;-88
2024/01/26 12:03:15;;;;;;;2.07;0.87;;;21.80;68.90;;;;;;4918503;28;20483;-89
2024/01/26 12:05:42;;;;;;;1.33;0.80;;;21.80;68.90;;;;;;4913206;28;20476;-87
2024/01/26 12:08:10;;;;;;;1.60;0.80;;;21.90;68.90;;;;;;4914441;28;20492;-87
2024/01/26 12:10:37;;;;;;;1.10;0.80;;;21.90;68.80;;;;;;4919494;28;21107;-88
2024/01/26 12:13:05;;;;;;;3.40;0.90;;;21.90;68.80;;;;;;4914053;28;20476;-87
2024/01/26 12:15:38;;;;;;;1.03;0.80;;;22.00;68.90;;;;;;4911487;28;20467;-88
2024/01/26 12:18:08;;;;;;;1.10;0.97;;;22.00;68.90;;;;;;4918790;28;20460;-88
2024/01/26 12:20:35;;;;;;;1.00;0.67;;;22.00;68.70;;;;;;4915599;28;20464;-86
2024/01/26 12:23:04;;;;;;;1.23;0.73;;;22.10;68.90;;;;;;4916132;28;20500;-88
2024/01/26 12:25:32;;;;;;;1.20;0.80;;;22.10;68.80;;;;;;4917871;28;20587;-87
2024/01/26 12:28:02;;;;;;;1.20;0.70;;;22.10;68.80;;;;;;4911680;28;21284;-85
2024/01/26 12:30:29;;;;;;;1.10;0.90;;;22.10;68.70;;;;;;4911146;28;20464;-87
2024/01/26 12:33:05;;;;;;;1.13;0.70;;;22.20;68.60;;;;;;4912399;28;20475;-87
2024/01/26 12:35:34;;;;;;;6.00;0.80;;;22.20;68.60;;;;;;4914649;28;20459;-88
2024/01/26 12:38:00;;;;;;;1.23;0.90;;;22.20;68.60;;;;;;4918562;28;20468;-86
2024/01/26 12:40:27;;;;;;;1.07;0.80;;;22.20;67.60;;;;;;4898623;28;20486;-84
2024/01/26 12:42:57;;;;;;;1.10;0.70;;;22.20;68.20;;;;;;4926781;28;20456;-88
2024/01/26 12:45:24;;;;;;;1.87;1.00;;;22.20;68.00;;;;;;4913545;28;20467;-84
2024/01/26 12:47:51;;;;;;;1.00;0.70;;;22.20;68.00;;;;;;4915196;28;20456;-87